San Francisco, California
Traffic Map
Current Weather Conditions
San Francisco, California
Scattered Clouds Haze
Scattered Clouds
50°
Feels Like: 50°
Wind Chill: 50° Ceiling: Unl
Heat Index: 50° Visibility: 2mi
Dew Point: 45° Wind: 6mph
Humidity: 83% Direction: 300° (WNW)
Pressure: 29.99in Gusts: 0mph
Raw Report DataKSFO 170756Z 30005KT 2SM HZ SCT014 10/07 A2999 RMK AO2 SLP156 T01000072 401670067
Traffic Incident Summary
Active as of:
Severity:
Category:
InformationThere was an issue retrieving the traffic information for this location. Please try a different location or try again shortly.
Advertisements